createdAt,value
2019-02-22T00:01:57.782Z,57.50
2019-02-22T00:04:27.495Z,54.70
2019-02-22T00:06:57.238Z,56.73
2019-02-22T00:09:26.921Z,55.20
2019-02-22T00:11:56.691Z,57.17
2019-02-22T00:14:26.365Z,61.13
2019-02-22T00:16:56.047Z,57.60
2019-02-22T00:19:25.802Z,58.00
2019-02-22T00:21:56.185Z,60.47
2019-02-22T00:24:26.572Z,62.90
2019-02-22T00:26:56.259Z,66.67
2019-02-22T00:29:26.000Z,64.77
2019-02-22T00:31:55.655Z,60.93
2019-02-22T00:34:25.413Z,62.80
2019-02-22T00:36:55.130Z,57.13
2019-02-22T00:39:24.758Z,59.23
2019-02-22T00:41:54.462Z,63.00
2019-02-22T00:44:24.136Z,58.60
2019-02-22T00:46:53.857Z,55.93
2019-02-22T00:49:24.213Z,54.70
2019-02-22T00:51:53.953Z,56.83
2019-02-22T00:54:23.621Z,54.77
2019-02-22T00:57:12.640Z,57.43
2019-02-22T00:59:42.327Z,60.50
2019-02-22T01:02:11.993Z,55.97
2019-02-22T01:04:41.680Z,56.03
2019-02-22T01:07:11.438Z,57.50
2019-02-22T01:09:41.194Z,57.43
2019-02-22T01:12:13.445Z,57.63
2019-02-22T01:14:43.198Z,58.13
2019-02-22T01:17:12.859Z,58.13
2019-02-22T01:19:45.297Z,59.53
2019-02-22T01:22:14.961Z,58.23
2019-02-22T01:24:44.634Z,58.63
2019-02-22T01:27:14.382Z,56.73
2019-02-22T01:29:44.046Z,56.53
2019-02-22T01:32:16.363Z,58.53
2019-02-22T01:34:46.054Z,54.63
2019-02-22T01:37:15.812Z,59.43
2019-02-22T01:39:45.532Z,59.20
2019-02-22T01:42:15.268Z,60.20
2019-02-22T01:44:46.426Z,57.63
2019-02-22T01:47:16.186Z,61.73
2019-02-22T01:49:45.864Z,60.10
2019-02-22T01:52:15.530Z,60.40
2019-02-22T01:54:45.193Z,56.97
2019-02-22T01:57:15.484Z,57.63
2019-02-22T01:59:45.154Z,56.10
2019-02-22T02:02:14.810Z,58.47
2019-02-22T02:04:44.517Z,62.80
2019-02-22T02:07:14.183Z,59.23
2019-02-22T02:09:44.116Z,57.70
2019-02-22T02:12:13.813Z,58.47
2019-02-22T02:14:43.470Z,61.60
2019-02-22T02:17:13.137Z,60.80
2019-02-22T02:19:43.121Z,57.63
2019-02-22T02:22:12.855Z,57.90
2019-02-22T02:24:42.518Z,59.90
2019-02-22T02:27:15.190Z,62.27
2019-02-22T02:29:44.926Z,57.33
2019-02-22T02:32:14.613Z,58.63
2019-02-22T02:34:44.735Z,58.63
2019-02-22T02:37:14.382Z,55.47
2019-02-22T02:39:44.108Z,54.43
2019-02-22T02:42:13.815Z,56.63
2019-02-22T02:44:43.483Z,57.13
2019-02-22T02:47:13.134Z,56.67
2019-02-22T02:49:42.830Z,54.20
2019-02-22T02:52:12.489Z,55.03
2019-02-22T02:54:42.234Z,56.07
2019-02-22T02:57:12.019Z,57.33
2019-02-22T02:59:41.688Z,56.07
2019-02-22T03:02:14.590Z,58.57
2019-02-22T03:04:44.290Z,58.07
2019-02-22T03:07:15.607Z,57.50
2019-02-22T03:09:45.316Z,56.27
2019-02-22T03:12:15.007Z,58.03
2019-02-22T03:14:44.660Z,58.87
2019-02-22T03:17:14.326Z,56.17
2019-02-22T03:19:44.029Z,56.70
2019-02-22T03:22:18.711Z,59.43
2019-02-22T03:24:48.726Z,58.93
2019-02-22T03:27:18.738Z,57.93
2019-02-22T03:29:48.418Z,56.10
2019-02-22T03:32:18.105Z,57.97
2019-02-22T03:34:47.788Z,57.90
2019-02-22T03:37:17.458Z,55.87
2019-02-22T03:39:47.117Z,54.77
2019-02-22T03:42:19.540Z,55.43
2019-02-22T03:44:51.413Z,52.90
2019-02-22T03:47:21.088Z,57.00
2019-02-22T03:49:50.793Z,54.30
2019-02-22T03:52:32.060Z,57.77
2019-02-22T03:55:06.080Z,54.87
2019-02-22T03:57:38.726Z,54.63
2019-02-22T04:00:11.602Z,57.43
2019-02-22T04:02:41.265Z,55.37
2019-02-22T04:05:10.941Z,54.10
2019-02-22T04:07:40.629Z,58.80
2019-02-22T04:10:10.500Z,56.40
2019-02-22T04:12:43.113Z,54.63
2019-02-22T04:15:12.801Z,52.90
2019-02-22T04:17:42.661Z,54.73
2019-02-22T04:20:12.297Z,56.03
2019-02-22T04:22:44.501Z,54.50
2019-02-22T04:25:13.408Z,53.60
2019-02-22T04:27:43.069Z,57.67
2019-02-22T04:30:14.423Z,54.60
2019-02-22T04:32:44.061Z,54.63
2019-02-22T04:35:13.996Z,54.87
2019-02-22T04:37:44.268Z,53.63
2019-02-22T04:40:13.944Z,56.00
2019-02-22T04:42:43.594Z,54.50
2019-02-22T04:45:13.277Z,54.50
2019-02-22T04:47:42.953Z,55.60
2019-02-22T04:50:12.615Z,56.97
2019-02-22T04:52:42.326Z,54.90
2019-02-22T04:55:12.003Z,55.13
2019-02-22T04:57:41.664Z,54.07
2019-02-22T05:00:11.596Z,55.27
2019-02-22T05:02:42.065Z,54.30
2019-02-22T05:05:13.381Z,53.53
2019-02-22T05:07:43.058Z,58.50
2019-02-22T05:10:12.722Z,54.63
2019-02-22T05:12:42.402Z,54.97
2019-02-22T05:15:13.561Z,57.47
2019-02-22T05:17:43.283Z,54.10
2019-02-22T05:20:14.391Z,57.40
2019-02-22T05:22:44.066Z,55.93
2019-02-22T05:25:14.973Z,54.10
2019-02-22T05:27:44.627Z,54.37
2019-02-22T05:30:14.391Z,55.60
2019-02-22T05:32:44.042Z,57.60
2019-02-22T05:35:13.710Z,55.27
2019-02-22T05:37:43.537Z,54.33
2019-02-22T05:40:13.191Z,53.07
2019-02-22T05:42:42.872Z,56.10
2019-02-22T05:45:12.808Z,54.83
2019-02-22T05:47:44.111Z,56.67
2019-02-22T05:50:15.435Z,56.90
2019-02-22T05:52:45.127Z,62.27
2019-02-22T05:55:14.809Z,57.03
2019-02-22T05:57:44.454Z,56.33
2019-02-22T06:00:15.133Z,55.47
2019-02-22T06:02:45.143Z,54.47
2019-02-22T06:05:16.396Z,57.77
2019-02-22T06:07:48.001Z,58.60
2019-02-22T06:10:18.022Z,59.57
2019-02-22T06:12:47.729Z,57.90
2019-02-22T06:15:17.419Z,54.77
2019-02-22T06:17:48.098Z,57.43
2019-02-22T06:20:17.922Z,57.17
2019-02-22T06:22:47.621Z,61.47
2019-02-22T06:25:17.297Z,58.00
2019-02-22T06:27:48.810Z,55.37
2019-02-22T06:30:18.490Z,54.70
2019-02-22T06:32:48.149Z,54.97
2019-02-22T06:35:17.820Z,56.27
2019-02-22T06:37:48.155Z,56.33
2019-02-22T06:40:19.492Z,55.27
2019-02-22T06:42:50.617Z,58.60
2019-02-22T06:45:20.383Z,58.13
2019-02-22T06:47:50.037Z,58.07
2019-02-22T06:50:19.770Z,61.80
2019-02-22T06:52:49.467Z,55.10
2019-02-22T06:55:19.140Z,56.53
2019-02-22T06:57:48.795Z,54.17
2019-02-22T07:00:18.568Z,56.87
2019-02-22T07:02:48.223Z,57.90
2019-02-22T07:05:17.926Z,55.90
2019-02-22T07:07:48.073Z,57.33
2019-02-22T07:10:17.773Z,61.63
2019-02-22T07:12:56.741Z,56.33
2019-02-22T07:15:24.233Z,57.20
2019-02-22T07:17:55.667Z,55.70
2019-02-22T07:20:25.415Z,58.53
2019-02-22T07:22:55.111Z,55.13
2019-02-22T07:25:24.780Z,57.73
2019-02-22T07:27:54.458Z,56.77
2019-02-22T07:30:24.157Z,57.17
2019-02-22T07:32:53.888Z,58.70
2019-02-22T07:35:23.657Z,59.63
2019-02-22T07:37:53.355Z,57.50
2019-02-22T07:40:23.007Z,56.93
2019-02-22T07:42:52.672Z,55.63
2019-02-22T07:45:22.442Z,58.37
2019-02-22T07:47:52.124Z,54.13
2019-02-22T07:50:22.742Z,55.47
2019-02-22T07:52:52.451Z,55.00
2019-02-22T07:55:23.208Z,55.73
2019-02-22T07:57:52.868Z,54.67
2019-02-22T08:00:22.891Z,55.20
2019-02-22T08:02:52.778Z,54.50
2019-02-22T08:05:22.460Z,55.80
2019-02-22T08:07:52.152Z,57.37
2019-02-22T08:10:21.810Z,60.30
2019-02-22T08:12:51.486Z,56.20
2019-02-22T08:15:21.175Z,57.67
2019-02-22T08:17:50.842Z,55.67
2019-02-22T08:20:20.519Z,56.70
2019-02-22T08:22:50.224Z,57.10
2019-02-22T08:25:19.870Z,56.43
2019-02-22T08:27:53.908Z,58.83
2019-02-22T08:30:22.953Z,56.90
2019-02-22T08:32:52.696Z,53.53
2019-02-22T08:35:22.370Z,57.57
2019-02-22T08:37:52.139Z,54.73
2019-02-22T08:40:22.889Z,54.87
2019-02-22T08:42:52.567Z,54.93
2019-02-22T08:45:22.280Z,58.00
2019-02-22T08:47:51.959Z,55.40
2019-02-22T08:50:23.777Z,60.27
2019-02-22T08:52:53.744Z,53.27
2019-02-22T08:55:23.415Z,56.53
2019-02-22T08:57:53.873Z,55.33
2019-02-22T09:00:23.592Z,57.33
2019-02-22T09:02:56.249Z,56.83
2019-02-22T09:05:25.947Z,57.97
2019-02-22T09:07:55.621Z,54.83
2019-02-22T09:10:26.771Z,57.90
2019-02-22T09:12:56.448Z,58.73
2019-02-22T09:15:26.145Z,54.03
2019-02-22T09:17:55.810Z,52.30
2019-02-22T09:20:26.496Z,53.43
2019-02-22T09:22:59.092Z,54.00
2019-02-22T09:25:28.750Z,52.27
2019-02-22T09:27:58.448Z,53.80
2019-02-22T09:30:28.219Z,53.37
2019-02-22T09:33:01.249Z,52.90
2019-02-22T09:35:30.953Z,54.80
2019-02-22T09:38:00.636Z,52.83
2019-02-22T09:40:31.661Z,53.07
2019-02-22T09:43:02.222Z,54.60
2019-02-22T09:45:34.883Z,52.27
2019-02-22T09:48:04.542Z,52.40
2019-02-22T09:50:34.247Z,54.93
2019-02-22T09:53:04.100Z,50.97
2019-02-22T09:55:33.768Z,53.10
2019-02-22T09:58:03.472Z,53.50
2019-02-22T10:00:33.178Z,53.73
2019-02-22T10:03:02.844Z,52.30
2019-02-22T10:05:32.575Z,51.77
2019-02-22T10:08:02.275Z,56.43
2019-02-22T10:10:32.004Z,54.27
2019-02-22T10:13:01.705Z,53.40
2019-02-22T10:15:32.607Z,53.40
2019-02-22T10:18:04.017Z,54.47
2019-02-22T10:20:33.729Z,54.73
2019-02-22T10:23:05.286Z,55.20
2019-02-22T10:25:34.962Z,56.23
2019-02-22T10:28:16.905Z,54.60
2019-02-22T10:30:37.253Z,54.93
2019-02-22T10:33:06.957Z,57.33
2019-02-22T10:35:36.691Z,54.90
2019-02-22T10:38:06.359Z,54.10
2019-02-22T10:40:39.297Z,55.13
2019-02-22T10:43:09.153Z,55.27
2019-02-22T10:45:38.868Z,55.50
2019-02-22T10:48:09.749Z,54.67
2019-02-22T10:50:39.460Z,57.03
2019-02-22T10:53:09.196Z,55.87
2019-02-22T10:55:38.872Z,56.07
2019-02-22T10:58:08.614Z,55.27
2019-02-22T11:00:38.778Z,55.90
2019-02-22T11:03:11.358Z,55.23
2019-02-22T11:05:41.053Z,57.53
2019-02-22T11:08:18.008Z,55.67
2019-02-22T11:10:47.719Z,58.20
2019-02-22T11:13:17.407Z,55.40
2019-02-22T11:15:47.152Z,58.10
2019-02-22T11:18:18.310Z,58.17
2019-02-22T11:20:48.074Z,59.07
2019-02-22T11:23:18.006Z,60.83
2019-02-22T11:25:48.052Z,57.63
2019-02-22T11:28:18.920Z,58.40
2019-02-22T11:30:48.602Z,58.70
2019-02-22T11:33:18.585Z,57.77
2019-02-22T11:35:48.340Z,59.87
2019-02-22T11:38:18.002Z,58.67
2019-02-22T11:40:48.087Z,58.93
2019-02-22T11:43:17.969Z,59.70
2019-02-22T11:45:49.917Z,60.37
2019-02-22T11:48:19.239Z,60.57
2019-02-22T11:50:48.977Z,60.27
2019-02-22T11:53:18.736Z,59.83
2019-02-22T11:55:48.442Z,57.87
2019-02-22T11:58:18.187Z,59.40
2019-02-22T12:00:48.068Z,60.00
2019-02-22T12:03:24.724Z,59.03
2019-02-22T12:05:49.422Z,59.63
2019-02-22T12:08:20.438Z,59.87
2019-02-22T12:10:50.119Z,60.63
2019-02-22T12:13:20.781Z,62.33
2019-02-22T12:15:50.519Z,65.57
2019-02-22T12:18:20.214Z,63.80
2019-02-22T12:20:49.947Z,62.80
2019-02-22T12:23:19.621Z,58.77
2019-02-22T12:25:55.097Z,60.63
2019-02-22T12:28:24.774Z,62.00
2019-02-22T12:30:54.527Z,59.90
2019-02-22T12:33:24.264Z,60.83
2019-02-22T12:35:54.017Z,59.87
2019-02-22T12:38:23.791Z,59.17
2019-02-22T12:40:53.531Z,61.83
2019-02-22T12:43:23.218Z,61.00
2019-02-22T12:45:52.961Z,57.07
2019-02-22T12:48:22.653Z,57.87
2019-02-22T12:50:52.341Z,59.43
2019-02-22T12:53:22.027Z,57.80
2019-02-22T12:55:51.802Z,59.37
2019-02-22T12:58:21.547Z,58.43
2019-02-22T13:00:53.000Z,57.47
2019-02-22T13:03:22.692Z,57.53
2019-02-22T13:05:52.375Z,59.13
2019-02-22T13:08:22.131Z,61.43
2019-02-22T13:10:51.848Z,58.53
2019-02-22T13:13:21.609Z,58.03
2019-02-22T13:15:51.343Z,57.93
2019-02-22T13:18:21.055Z,60.03
2019-02-22T13:20:53.181Z,61.67
2019-02-22T13:23:22.145Z,60.70
2019-02-22T13:25:51.856Z,59.47
2019-02-22T13:28:21.618Z,63.03
2019-02-22T13:30:52.282Z,60.50
2019-02-22T13:33:21.991Z,62.20
2019-02-22T13:35:51.653Z,62.27
2019-02-22T13:38:21.444Z,60.60
2019-02-22T13:40:51.151Z,59.90
2019-02-22T13:43:20.815Z,59.83
2019-02-22T13:45:50.692Z,59.23
2019-02-22T13:48:20.397Z,61.77
2019-02-22T13:50:50.100Z,61.67
2019-02-22T13:53:19.867Z,62.27
2019-02-22T13:55:49.573Z,59.70
2019-02-22T13:58:19.233Z,61.90
2019-02-22T14:01:08.203Z,61.00
2019-02-22T14:03:37.870Z,60.93
2019-02-22T14:06:07.532Z,57.97
2019-02-22T14:08:47.151Z,60.63
2019-02-22T14:11:16.869Z,58.63
2019-02-22T14:13:46.538Z,58.43
2019-02-22T14:16:16.276Z,59.60
2019-02-22T14:18:46.198Z,60.53
2019-02-22T14:21:16.479Z,63.37
2019-02-22T14:23:46.241Z,60.80
2019-02-22T14:26:16.248Z,60.60
2019-02-22T14:28:46.000Z,60.83
2019-02-22T14:31:15.751Z,61.27
2019-02-22T14:33:45.493Z,61.73
2019-02-22T14:36:15.260Z,61.77
2019-02-22T14:38:45.210Z,62.10
2019-02-22T14:41:14.884Z,62.53
2019-02-22T14:43:44.571Z,61.30
2019-02-22T14:46:25.329Z,64.17
2019-02-22T14:48:45.750Z,62.80
2019-02-22T14:51:15.460Z,63.13
2019-02-22T14:53:45.442Z,61.13
2019-02-22T14:56:15.129Z,61.37
2019-02-22T14:58:44.878Z,63.67
2019-02-22T15:01:14.577Z,62.03
2019-02-22T15:03:44.248Z,65.00
2019-02-22T15:06:14.015Z,62.63
2019-02-22T15:08:43.746Z,64.30
2019-02-22T15:11:13.479Z,62.33
2019-02-22T15:13:43.225Z,62.40
2019-02-22T15:16:14.566Z,60.57
2019-02-22T15:18:47.093Z,63.00
2019-02-22T15:21:17.376Z,62.53
2019-02-22T15:23:47.120Z,61.63
2019-02-22T15:26:16.747Z,63.83
2019-02-22T15:28:46.409Z,66.33
2019-02-22T15:31:16.104Z,66.03
2019-02-22T15:33:45.800Z,66.80
2019-02-22T15:36:16.188Z,64.80
2019-02-22T15:38:47.419Z,63.90
2019-02-22T15:41:17.359Z,64.67
2019-02-22T15:43:47.105Z,65.57
2019-02-22T15:46:16.760Z,64.87
2019-02-22T15:48:47.479Z,64.03
2019-02-22T15:51:17.229Z,67.03
2019-02-22T15:53:46.940Z,67.03
2019-02-22T15:56:18.425Z,68.87
2019-02-22T15:58:48.048Z,68.27
2019-02-22T16:01:17.828Z,68.97
2019-02-22T16:03:49.143Z,67.77
2019-02-22T16:06:19.017Z,66.13
2019-02-22T16:08:54.552Z,65.57
2019-02-22T16:11:24.587Z,67.03
2019-02-22T16:13:54.267Z,65.57
2019-02-22T16:16:25.521Z,67.87
2019-02-22T16:18:55.028Z,70.30
2019-02-22T16:21:24.904Z,66.63
2019-02-22T16:23:55.123Z,65.43
2019-02-22T16:26:26.428Z,67.90
2019-02-22T16:29:09.437Z,68.30
2019-02-22T16:31:52.829Z,68.83
2019-02-22T16:34:24.171Z,67.80
2019-02-22T16:36:53.858Z,67.70
2019-02-22T16:39:23.572Z,65.67
2019-02-22T16:41:53.247Z,70.23
2019-02-22T16:44:42.273Z,66.23
2019-02-22T16:47:12.083Z,66.23
2019-02-22T16:49:41.753Z,67.23
2019-02-22T16:52:11.460Z,67.00
2019-02-22T16:54:41.249Z,68.60
2019-02-22T16:57:10.944Z,65.83
2019-02-22T16:59:40.612Z,65.70
2019-02-22T17:02:10.327Z,65.47
2019-02-22T17:04:41.458Z,66.90
2019-02-22T17:07:11.247Z,66.17
2019-02-22T17:09:40.915Z,64.07
2019-02-22T17:12:10.584Z,64.50
2019-02-22T17:14:40.279Z,63.80
2019-02-22T17:17:09.977Z,65.03
2019-02-22T17:19:39.646Z,66.77
2019-02-22T17:22:09.777Z,65.03
2019-02-22T17:24:40.988Z,64.30
2019-02-22T17:27:17.952Z,63.70
2019-02-22T17:29:48.817Z,64.27
2019-02-22T17:32:18.491Z,62.27
2019-02-22T17:34:48.237Z,60.57
2019-02-22T17:37:17.871Z,60.90
2019-02-22T17:39:47.733Z,63.20
2019-02-22T17:42:21.527Z,63.80
2019-02-22T17:44:51.201Z,61.87
2019-02-22T17:47:20.940Z,63.30
2019-02-22T17:49:50.649Z,63.33
2019-02-22T17:52:20.323Z,66.73
2019-02-22T17:54:50.008Z,64.67
2019-02-22T17:57:20.466Z,63.27
2019-02-22T17:59:50.137Z,64.80
2019-02-22T18:02:19.907Z,62.23
2019-02-22T18:04:50.085Z,61.57
2019-02-22T18:07:21.250Z,63.40
2019-02-22T18:09:51.199Z,62.27
2019-02-22T18:12:20.967Z,62.67
2019-02-22T18:14:50.644Z,60.77
2019-02-22T18:17:21.014Z,63.47
2019-02-22T18:19:50.728Z,59.00
2019-02-22T18:22:25.682Z,65.67
2019-02-22T18:24:51.992Z,62.50
2019-02-22T18:27:21.693Z,63.93
2019-02-22T18:29:51.441Z,65.30
2019-02-22T18:32:21.194Z,66.90
2019-02-22T18:34:50.952Z,64.13
2019-02-22T18:37:20.689Z,63.07
2019-02-22T18:39:50.650Z,64.27
2019-02-22T18:42:20.359Z,63.40
2019-02-22T18:44:50.078Z,67.17
2019-02-22T18:47:24.409Z,65.03
2019-02-22T18:49:54.113Z,62.60
2019-02-22T18:52:23.786Z,62.53
2019-02-22T18:54:53.494Z,63.33
2019-02-22T18:57:23.181Z,62.03
2019-02-22T18:59:52.859Z,60.80
2019-02-22T19:02:22.538Z,64.47
2019-02-22T19:04:52.245Z,62.60
2019-02-22T19:07:21.925Z,62.77
2019-02-22T19:09:51.621Z,61.30
2019-02-22T19:12:21.351Z,62.43
2019-02-22T19:14:51.007Z,66.50
2019-02-22T19:17:30.140Z,62.10
2019-02-22T19:19:52.100Z,62.27
2019-02-22T19:22:23.399Z,61.97
2019-02-22T19:24:53.789Z,62.53
2019-02-22T19:27:24.040Z,63.70
2019-02-22T19:29:53.720Z,63.63
2019-02-22T19:32:23.457Z,64.47
2019-02-22T19:34:53.167Z,64.77
2019-02-22T19:37:26.092Z,62.57
2019-02-22T19:39:58.778Z,60.57
2019-02-22T19:42:29.031Z,64.60
2019-02-22T19:45:02.904Z,62.83
2019-02-22T19:47:41.793Z,63.93
2019-02-22T19:50:12.851Z,61.57
2019-02-22T19:53:02.827Z,62.60
2019-02-22T19:55:34.284Z,60.40
2019-02-22T19:58:05.089Z,58.60
2019-02-22T20:00:35.651Z,61.30
2019-02-22T20:03:06.517Z,64.30
2019-02-22T20:05:37.275Z,61.13
2019-02-22T20:08:09.168Z,61.20
2019-02-22T20:10:39.874Z,61.57
2019-02-22T20:13:10.607Z,62.40
2019-02-22T20:15:40.338Z,60.53
2019-02-22T20:18:10.085Z,63.00
2019-02-22T20:20:39.895Z,60.87
2019-02-22T20:23:09.599Z,59.80
2019-02-22T20:25:39.275Z,59.23
2019-02-22T20:28:08.954Z,60.63
2019-02-22T20:30:38.735Z,60.30
2019-02-22T20:33:08.401Z,58.50
2019-02-22T20:35:38.066Z,59.10
2019-02-22T20:38:09.341Z,61.53
2019-02-22T20:40:39.018Z,58.87
2019-02-22T20:43:08.688Z,66.43
2019-02-22T20:45:38.391Z,60.70
2019-02-22T20:48:08.137Z,57.97
2019-02-22T20:50:37.813Z,59.77
2019-02-22T20:53:07.507Z,64.90
2019-02-22T20:55:37.191Z,63.53
2019-02-22T20:58:06.934Z,59.60
2019-02-22T21:00:38.037Z,61.27
2019-02-22T21:03:07.730Z,60.60
2019-02-22T21:05:37.400Z,62.33
2019-02-22T21:08:07.115Z,61.40
2019-02-22T21:10:36.774Z,61.17
2019-02-22T21:13:06.458Z,62.17
2019-02-22T21:15:36.163Z,62.40
2019-02-22T21:18:15.992Z,63.47
2019-02-22T21:20:37.237Z,61.33
2019-02-22T21:23:06.931Z,63.57
2019-02-22T21:25:36.620Z,66.20
2019-02-22T21:28:06.325Z,62.30
2019-02-22T21:30:36.039Z,62.33
2019-02-22T21:33:05.704Z,62.00
2019-02-22T21:35:35.395Z,65.60
2019-02-22T21:38:06.064Z,65.37
2019-02-22T21:40:35.743Z,65.83
2019-02-22T21:43:06.491Z,66.57
2019-02-22T21:45:36.176Z,65.80
2019-02-22T21:48:05.873Z,68.10
2019-02-22T21:50:35.350Z,65.30
2019-02-22T21:53:05.039Z,67.33
2019-02-22T21:55:35.596Z,63.57
2019-02-22T21:58:09.761Z,69.13
2019-02-22T22:00:39.463Z,64.87
2019-02-22T22:03:10.735Z,63.63
2019-02-22T22:05:41.102Z,66.87
2019-02-22T22:08:10.810Z,69.23
2019-02-22T22:10:40.516Z,70.23
2019-02-22T22:13:10.179Z,71.00
2019-02-22T22:15:39.875Z,73.43
2019-02-22T22:18:11.187Z,69.80
2019-02-22T22:20:40.857Z,68.47
2019-02-22T22:23:10.577Z,71.67
2019-02-22T22:25:40.242Z,68.87
2019-02-22T22:28:09.852Z,66.80
2019-02-22T22:30:39.552Z,71.03
2019-02-22T22:33:10.380Z,70.17
2019-02-22T22:35:40.270Z,71.43
2019-02-22T22:38:10.013Z,75.13
2019-02-22T22:40:39.752Z,72.10
2019-02-22T22:43:09.499Z,72.53
2019-02-22T22:45:39.935Z,73.23
2019-02-22T22:48:09.582Z,75.00
2019-02-22T22:50:39.272Z,73.30
2019-02-22T22:53:10.185Z,77.97
2019-02-22T22:55:39.922Z,72.80
2019-02-22T22:58:09.710Z,77.27
2019-02-22T23:00:51.342Z,78.67
2019-02-22T23:03:21.907Z,76.13
2019-02-22T23:05:51.608Z,74.60
2019-02-22T23:08:21.309Z,77.50
2019-02-22T23:10:50.988Z,78.37
2019-02-22T23:13:20.667Z,76.63
2019-02-22T23:15:50.438Z,73.83
2019-02-22T23:18:20.113Z,76.47
2019-02-22T23:20:49.798Z,72.77
2019-02-22T23:23:19.499Z,76.40
2019-02-22T23:25:49.245Z,75.93
2019-02-22T23:28:18.904Z,76.37
2019-02-22T23:30:48.617Z,72.03
2019-02-22T23:33:18.276Z,74.57
2019-02-22T23:35:47.966Z,72.03
2019-02-22T23:38:17.646Z,75.07
2019-02-22T23:40:47.358Z,70.97
2019-02-22T23:43:17.044Z,69.43
2019-02-22T23:45:46.909Z,70.30
2019-02-22T23:48:16.578Z,76.33
2019-02-22T23:50:46.264Z,77.73
2019-02-22T23:53:15.974Z,75.50
2019-02-22T23:55:45.658Z,76.90
2019-02-22T23:58:15.342Z,78.00
